Tiempo atmosférico en la estación meteorológica de Telde, Melenara, Las Palmas (9 m.)



Fecha
DESCASC
Temp. máxima en grados centígrados (hora)
DESCASC
Temp. mínima en grados centígrados (hora)
DESCASC
Temp. media en grados centígrados
DESCASC
Racha de viento máxima en m/sg (hora)
DESCASC
Velocidad máxima media en intervalos de 10 minutos(hora)
DESCASC
Precipitaciones diarias en mm
DESCASC
Precipitaciones de 00:00 a 06:00 en mm
DESCASC
Precipitaciones de 06:00 a 12:00 en mm
DESCASC
Precipitaciones de 12:00 a 18:00 en mm
DESCASC
Precipitaciones de 18:00 a 24:00 en mm
DESCASC
05-12-2019 20.3 (11:50) 15.5 (21:50) 17.9 17.22 (12:50) 8.61 (12:50) 13 10.6 0 1.4 1
04-12-2019 22.5 (15:30) 16.2 (03:00) 19.4 10 (17:30) 6.39 (17:30) 0 0 0 0 0
03-12-2019 21.9 (13:40) 16.7 (00:00) 19.3 11.11 (00:10) 6.67 (10:40) 2.4 2.4 0 0 0
02-12-2019 22.6 (14:40) 17.6 (00:00) 20.1 11.11 (14:50) 6.39 (13:10) 1.6 0 0 0 1.6
01-12-2019 22.2 (13:20) 17.9 (00:00) 20.1 9.17 (16:50) 5 (15:10) 0 0 0 0 0
30-11-2019 25 (11:30) 17 (00:00) 21 7.22 (23:30) 4.44 (23:59) 0 0 0 0 0
29-11-2019 24.1 (14:50) 17.6 (00:00) 20.9 5.56 (23:00) 4.17 (22:50) 0 0 0 0 0
28-11-2019 21.7 (11:30) 18.8 (00:00) 20.3 6.94 (16:40) 4.72 (11:20) 0 0 0 0 0
27-11-2019 22.2 (13:50) 19.7 (00:00) 21 8.61 (16:00) 5.28 (14:10) 0 0 0 0 0
26-11-2019 22.3 (12:10) 19.5 (00:00) 20.9 9.17 (15:10) 5.56 (18:30) 0 0 0 0 0
25-11-2019 22.2 (13:30) 17.5 (00:00) 19.9 8.61 (18:00) 5.28 (11:30) 0 0 0 0 0
24-11-2019 22.8 (13:20) 19 (00:00) 20.9 9.44 (19:30) 5.56 (15:00) 0 0 0 0 0
23-11-2019 24.7 (14:40) 16.6 (00:00) 20.7 10.28 (12:50) 6.11 (13:10) 1 0 0.2 0.8 0
22-11-2019 23.8 (13:50) 15.7 (00:00) 19.7 8.89 (12:00) 5.56 (12:00) 0 0 0 0 0
21-11-2019 21.6 (10:10) 15.6 (00:00) 18.6 3.89 (04:10) 3.33 (04:10) 0 0 0 0 0
20-11-2019 23.2 (13:00) 14.4 (00:00) 18.8 4.72 (14:40) 3.06 (02:30) 0 0 0 0 0
19-11-2019 22.2 (15:50) 15.6 (00:00) 18.9 9.72 (12:50) 5.83 (16:30) 1.8 0 1.6 0.2 0
18-11-2019 21.6 (13:00) 16.9 (00:00) 19.3 8.61 (00:30) 4.44 (09:10) 0 0 0 0 0
17-11-2019 21.1 (12:10) 17.3 (00:00) 19.2 12.5 (04:10) 8.33 (09:00) 0 0 0 0 0
16-11-2019 22 (12:30) 16.8 (00:00) 19.4 13.61 (00:20) 8.33 (21:50) 0.6 0.6 0 0 0
15-11-2019 21.8 (14:30) 17.5 (00:00) 19.6 14.17 (22:50) 7.22 (22:50) 0.6 0 0.2 0 0.4
14-11-2019 22.8 (11:20) 19.2 (00:00) 21 11.11 (22:00) 6.39 (22:30) 0 0 0 0 0
13-11-2019 23.5 (12:40) 19.3 (00:00) 21.4 12.22 (15:00) 6.94 (18:40) 0 0 0 0 0
12-11-2019 23.5 (13:40) 19.9 (00:00) 21.7 13.61 (06:20) 8.33 (06:20) 0 0 0 0 0
11-11-2019 22.9 (11:00) 20 (07:10) 21.4 14.17 (16:30) 8.61 (16:10) 0 0 0 0 0
10-11-2019 23.4 (13:30) 19.9 (00:00) 21.6 12.22 (00:20) 6.94 (00:20) 0 0 0 0 0
09-11-2019 23 (14:20) 19.7 (00:00) 21.4 14.17 (23:20) 8.33 (11:20) 0 0 0 0 0
08-11-2019 23.5 (11:30) 20.8 (00:00) 22.1 13.33 (15:50) 8.33 (14:40) 0.2 0.2 0 0 0

Gráficas

Temp. máximas Temp. mínimas Temp. medias Precipitaciones Rachas de viento máximas Velocidades máximas media en intervalos de 10 minutos

Datos horarios

Fecha y hora oficial Temperatura (ºC) Velocidad del viento (km/h) Dirección del viento Racha (km/h) Dirección de racha Precipitación (mm) Presión (hPa) Tendencia (hPa) Humedad (%)
2019-12-07 23:00:00 19.3 19 Norte 38 Norte 0 -- -- 74
2019-12-07 22:00:00 19.1 16 Norte 35 Norte 0 -- -- 74
2019-12-07 21:00:00 19.3 20 Norte 34 Norte 0 -- -- 73
2019-12-07 20:00:00 19.3 17 Norte 34 Norte 0 -- -- 74
2019-12-07 19:00:00 19.2 18 Norte 37 Norte 0 -- -- 73
2019-12-07 18:00:00 19.5 18 Norte 34 Norte 0 -- -- 73
2019-12-07 17:00:00 19.9 18 Norte 36 Nordeste 0 -- -- 71
2019-12-07 16:00:00 20.3 19 Norte 32 Nordeste 0 -- -- 70
2019-12-07 15:00:00 21.1 17 Norte 32 Norte 0 -- -- 64
2019-12-07 14:00:00 21.1 18 Norte 33 Norte 0 -- -- 65
2019-12-07 13:00:00 21 17 Norte 31 Norte 0 -- -- 69
2019-12-07 12:00:00 21 17 Norte 37 Norte 0 -- -- 67
2019-12-07 11:00:00 20.9 18 Norte 33 Norte 0 -- -- 67
2019-12-07 10:00:00 19.4 13 Noroeste 31 Noroeste 0 -- -- 72
2019-12-07 09:00:00 18.3 13 Noroeste 31 Noroeste 0 -- -- 72
2019-12-07 08:00:00 17.7 13 Noroeste 25 Noroeste 0 -- -- 73
2019-12-07 07:00:00 16.9 9 Noroeste 23 Noroeste 0 -- -- 76
2019-12-07 06:00:00 16.9 12 Noroeste 22 Noroeste 0 -- -- 73
2019-12-07 05:00:00 17.1 5 Noroeste 23 Norte 0 -- -- 71
2019-12-07 04:00:00 18.1 14 Norte 30 Norte 0 -- -- 67
2019-12-07 03:00:00 18.1 14 Norte 27 Norte 0 -- -- 69
2019-12-07 02:00:00 18.1 16 Norte 34 Norte 0 -- -- 70
2019-12-07 01:00:00 17.6 13 Norte 22 Noroeste 0 -- -- 73
2019-12-07 00:00:00 17.4 9 Noroeste 21 Noroeste 0 -- -- 77
2019-12-06 23:00:00 17.5 6 Noroeste 30 Norte 0 -- -- 80
2019-12-06 22:00:00 18.1 18 Nordeste 32 Nordeste 0.6 -- -- 72
2019-12-06 21:00:00 18.6 19 Norte 37 Norte 0 -- -- 75
2019-12-06 20:00:00 18.9 16 Norte 37 Norte 0 -- -- 69
2019-12-06 19:00:00 18.8 18 Norte 37 Norte 0 -- -- 71
2019-12-06 18:00:00 18.7 21 Nordeste 40 Norte 0 -- -- 78
2019-12-06 17:00:00 18.1 14 Norte 44 Noroeste 1.4 -- -- 82
2019-12-06 16:00:00 20.1 23 Norte 46 Noroeste 0 -- -- 65
2019-12-06 15:00:00 21 26 Norte 42 Norte 0 -- -- 60
2019-12-06 14:00:00 20.9 22 Norte 42 Noroeste 0 -- -- 62
2019-12-06 13:00:00 19.8 15 Noroeste 38 Norte 0 -- -- 70
2019-12-06 12:00:00 20.6 21 Norte 39 Norte 0 -- -- 65
2019-12-06 11:00:00 19.1 19 Norte 44 Noroeste 0.2 -- -- 72
2019-12-06 10:00:00 19 20 Norte 40 Norte 1.6 -- -- 75
2019-12-06 09:00:00 19.3 15 Norte 29 Norte 0 -- -- 67
2019-12-06 08:00:00 18.2 16 Norte 34 Norte 0 -- -- 68
2019-12-06 07:00:00 18.1 23 Norte 39 Norte 0 -- -- 69
2019-12-06 06:00:00 16.4 14 Noroeste 26 Noroeste 0.2 -- -- 79
2019-12-06 05:00:00 16.4 18 Noroeste 34 Noroeste 0.2 -- -- 81
2019-12-06 04:00:00 16.7 15 Noroeste 28 Noroeste 0 -- -- 71
2019-12-06 03:00:00 16.9 13 Noroeste 26 Noroeste 0 -- -- 74
2019-12-06 02:00:00 16.6 16 Noroeste 31 Noroeste 0 -- -- 75
2019-12-06 01:00:00 16 16 Noroeste 32 Noroeste 0.2 -- -- 81
2019-12-06 00:00:00 16.1 20 Noroeste 42 Noroeste 0.4 -- -- 78
2019-12-05 23:00:00 17.2 17 Noroeste 35 Noroeste 0.2 -- -- 74
2019-12-05 22:00:00 15.6 13 Noroeste 37 Noroeste 0 -- -- 79
2019-12-05 21:00:00 17.3 14 Noroeste 31 Noroeste 0.2 -- -- 73
2019-12-05 20:00:00 17.6 14 Noroeste 36 Norte 0 -- -- 66
2019-12-05 19:00:00 17.8 23 Norte 40 Norte 0.2 -- -- 71
2019-12-05 18:00:00 17.7 12 Noroeste 48 Noroeste 0 -- -- 65
2019-12-05 17:00:00 18.7 23 Norte 42 Noroeste 0.2 -- -- 65
2019-12-05 16:00:00 18.2 19 Noroeste 44 Norte 0.2 -- -- 72
2019-12-05 15:00:00 19.4 20 Norte 42 Oeste 0 -- -- 67
2019-12-05 14:00:00 19.4 24 Noroeste 41 Noroeste 0 -- -- 65
2019-12-05 13:00:00 16.9 26 Noroeste 62 Noroeste 1 -- -- 77
2019-12-05 12:00:00 18.7 25 Noroeste 48 Noroeste 0 -- -- 65
2019-12-05 11:00:00 20.2 27 Norte 44 Norte 0 -- -- 60
2019-12-05 10:00:00 19.8 14 Norte 43 Norte 0 -- -- 62
2019-12-05 09:00:00 18.5 13 Noroeste 31 Norte 0 -- -- 63
2019-12-05 08:00:00 17.3 14 Noroeste 28 Noroeste 0 -- -- 65
2019-12-05 07:00:00 17.2 14 Noroeste 34 Norte 0 -- -- 65
2019-12-05 06:00:00 17.5 21 Noroeste 40 Noroeste 0.4 -- -- 65
2019-12-05 05:00:00 16.5 14 Noroeste 26 Noroeste 0.4 -- -- 77
2019-12-05 04:00:00 15.9 13 Noroeste 27 Norte 1.6 -- -- 88
2019-12-05 03:00:00 16.6 10 Noroeste 22 Norte 7.4 -- -- 91
2019-12-05 02:00:00 16.9 4 Noroeste 22 Noroeste 0.8 -- -- 88
2019-12-05 01:00:00 18.5 13 Noroeste 23 Noroeste 0 -- -- 71
2019-12-05 00:00:00 18.5 4 Sudoeste 10 Sudoeste 0 -- -- 67
2019-12-04 23:00:00 17.6 2 Sudoeste 8 Oeste 0 -- -- 70
2019-12-04 22:00:00 18 5 Sudoeste 25 Noroeste 0 -- -- 67
2019-12-04 21:00:00 19.3 13 Noroeste 27 Noroeste 0 -- -- 64
2019-12-04 20:00:00 19.7 15 Noroeste 27 Noroeste 0 -- -- 62
2019-12-04 19:00:00 19 8 Noroeste 26 Oeste 0 -- -- 67
2019-12-04 18:00:00 19.8 17 Noroeste 36 Noroeste 0 -- -- 65
2019-12-04 17:00:00 20.5 21 Noroeste 33 Noroeste 0 -- -- 60
2019-12-04 16:00:00 22.4 13 Noroeste 23 Noroeste 0 -- -- 48
2019-12-04 15:00:00 22.1 11 Noroeste 29 Oeste 0 -- -- 46
2019-12-04 14:00:00 21.3 12 Oeste 26 Noroeste 0 -- -- 52
2019-12-04 13:00:00 21.2 17 Noroeste 31 Norte 0 -- -- 59
2019-12-04 12:00:00 21.2 14 Norte 24 Noroeste 0 -- -- 55
2019-12-04 11:00:00 20.9 13 Noroeste 24 Noroeste 0 -- -- 52
2019-12-04 10:00:00 20.6 15 Noroeste 23 Noroeste 0 -- -- 53
2019-12-04 09:00:00 18.2 9 Oeste 15 Oeste 0 -- -- 65
2019-12-04 08:00:00 17.8 9 Oeste 27 Oeste 0 -- -- 63
2019-12-04 07:00:00 17.5 18 Oeste 26 Oeste 0 -- -- 67
2019-12-04 06:00:00 17.6 13 Noroeste 24 Oeste 0 -- -- 70
2019-12-04 05:00:00 17.3 6 Noroeste 14 Oeste 0 -- -- 67
2019-12-04 04:00:00 16.5 7 Noroeste 13 Noroeste 0 -- -- 71
2019-12-04 03:00:00 16.2 9 Oeste 12 Oeste 0 -- -- 72
2019-12-04 02:00:00 17.3 8 Noroeste 13 Oeste 0 -- -- 67
2019-12-04 01:00:00 17.1 9 Oeste 17 Noroeste 0 -- -- 66
2019-12-04 00:00:00 18.2 9 Noroeste 17 Noroeste 0 -- -- 63
2019-12-03 23:00:00 18.1 10 Noroeste 17 Oeste 0 -- -- 62
2019-12-03 22:00:00 18 12 Noroeste 17 Noroeste 0 -- -- 62
2019-12-03 21:00:00 17.1 10 Noroeste 14 Noroeste 0 -- -- 65
2019-12-03 20:00:00 17.6 10 Oeste 14 Oeste 0 -- -- 64
2019-12-03 19:00:00 18.6 9 Noroeste 17 Oeste 0 -- -- 59
2019-12-03 18:00:00 19.5 14 Noroeste 25 Norte 0 -- -- 57
2019-12-03 17:00:00 20.5 12 Noroeste 31 Noroeste 0 -- -- 54
2019-12-03 16:00:00 20.8 15 Noroeste 34 Noroeste 0 -- -- 56
2019-12-03 15:00:00 21.3 20 Norte 34 Norte 0 -- -- 55
2019-12-03 14:00:00 21.7 19 Norte 36 Noroeste 0 -- -- 49
2019-12-03 13:00:00 21.2 18 Norte 34 Noroeste 0 -- -- 57
2019-12-03 12:00:00 21.7 16 Norte 33 Norte 0 -- -- 54
2019-12-03 11:00:00 20.6 19 Norte 40 Norte 0 -- -- 54
2019-12-03 10:00:00 19.7 18 Norte 32 Norte 0 -- -- 57
2019-12-03 09:00:00 19.1 15 Norte 35 Norte 0 -- -- 62
2019-12-03 08:00:00 18.3 10 Noroeste 31 Noroeste 0 -- -- 68
2019-12-03 07:00:00 18 13 Noroeste 29 Noroeste 0 -- -- 68
2019-12-03 06:00:00 17.3 17 Norte 33 Norte 1 -- -- 76
2019-12-03 05:00:00 17.7 12 Noroeste 21 Oeste 0 -- -- 73
2019-12-03 04:00:00 17.1 14 Oeste 22 Oeste 1.2 -- -- 81
2019-12-03 03:00:00 18 10 Noroeste 22 Noroeste 0 -- -- 70
2019-12-03 02:00:00 17.6 13 Noroeste 31 Noroeste 0 -- -- 71
2019-12-03 01:00:00 17.1 15 Noroeste 40 Oeste 0.2 -- -- 80
2019-12-03 00:00:00 17.8 9 Noroeste 23 Noroeste 0 -- -- 78
2019-12-02 23:00:00 18 15 Noroeste 32 Norte 0 -- -- 75
2019-12-02 22:00:00 17.6 12 Noroeste 26 Noroeste 0.4 -- -- 80
2019-12-02 21:00:00 17.7 12 Noroeste 35 Norte 0.8 -- -- 79
2019-12-02 20:00:00 18.1 11 Noroeste 28 Norte 0.2 -- -- 77
2019-12-02 19:00:00 18.7 13 Noroeste 26 Noroeste 0.2 -- -- 72
2019-12-02 18:00:00 20 14 Noroeste 36 Noroeste 0 -- -- 64
2019-12-02 17:00:00 21.3 14 Noroeste 32 Noroeste 0 -- -- 64
2019-12-02 16:00:00 22.1 20 Noroeste 37 Noroeste 0 -- -- 54
2019-12-02 15:00:00 22.5 18 Norte 40 Noroeste 0 -- -- 52
2019-12-02 14:00:00 21.9 15 Norte 37 Norte 0 -- -- 54
2019-12-02 13:00:00 21.2 20 Norte 33 Norte 0 -- -- 58
2019-12-02 12:00:00 21.3 13 Noroeste 27 Norte 0 -- -- 64
2019-12-02 11:00:00 20.3 16 Noroeste 33 Norte 0 -- -- 69
2019-12-02 10:00:00 18.7 9 Noroeste 27 Noroeste 0 -- -- 80
2019-12-02 09:00:00 19.8 14 Noroeste 30 Noroeste 0 -- -- 71
2019-12-02 08:00:00 19 9 Noroeste 20 Noroeste 0 -- -- 74
2019-12-02 07:00:00 18.8 11 Noroeste 18 Noroeste 0 -- -- 73
2019-12-02 06:00:00 18.7 11 Noroeste 23 Norte 0 -- -- 73
2019-12-02 05:00:00 19.1 10 Noroeste 25 Noroeste 0 -- -- 76
2019-12-02 04:00:00 18.7 13 Noroeste 25 Noroeste 0 -- -- 77
2019-12-02 03:00:00 19.1 10 Noroeste 20 Noroeste 0 -- -- 66
2019-12-02 02:00:00 18.4 8 Noroeste 19 Noroeste 0 -- -- 69
2019-12-02 01:00:00 18.8 11 Noroeste 20 Noroeste 0 -- -- 71
2019-12-02 00:00:00 18.8 13 Noroeste 20 Noroeste 0 -- -- 73
2019-12-01 23:00:00 18.6 11 Noroeste 17 Noroeste 0 -- -- 72
2019-12-01 22:00:00 17.9 9 Noroeste 13 Noroeste 0 -- -- 71
2019-12-01 21:00:00 18.9 6 Noroeste 19 Norte 0 -- -- 68
2019-12-01 20:00:00 20 13 Norte 22 Norte 0 -- -- 65
2019-12-01 19:00:00 20.3 13 Norte 23 Noroeste 0 -- -- 66
2019-12-01 18:00:00 20.4 15 Norte 30 Norte 0 -- -- 67
2019-12-01 17:00:00 20.8 18 Norte 33 Nordeste 0 -- -- 67
2019-12-01 16:00:00 22.1 18 Norte 30 Nordeste 0 -- -- 63
2019-12-01 15:00:00 22.1 16 Norte 28 Norte 0 -- -- 66
2019-12-01 14:00:00 22.1 13 Norte 27 Nordeste 0 -- -- 65
2019-12-01 13:00:00 21.6 14 Norte 25 Norte 0 -- -- 67
2019-12-01 12:00:00 21.7 13 Norte 26 Nordeste 0 -- -- 65
2019-12-01 11:00:00 21.2 17 Nordeste 26 Norte 0 -- -- 66
2019-12-01 10:00:00 21 15 Norte 27 Norte 0 -- -- 68
2019-12-01 09:00:00 20.4 12 Norte 23 Norte 0 -- -- 70
2019-12-01 08:00:00 19.8 12 Norte 27 Norte 0 -- -- 74
2019-12-01 07:00:00 19.7 13 Norte 23 Norte 0 -- -- 76
2019-12-01 06:00:00 19.6 13 Norte 23 Noroeste 0 -- -- 76
2019-12-01 05:00:00 19.4 14 Norte 22 Norte 0 -- -- 77
2019-12-01 04:00:00 19.5 10 Norte 23 Norte 0 -- -- 79
2019-12-01 03:00:00 19.9 10 Norte 23 Norte 0 -- -- 79
2019-12-01 02:00:00 20 12 Norte 24 Norte 0 -- -- 79
2019-12-01 01:00:00 20.1 13 Norte 24 Norte 0 -- -- 83
2019-12-01 00:00:00 20.2 16 Norte 26 Noroeste 0 -- -- 85
2019-11-30 23:00:00 20.1 13 Norte 23 Norte 0 -- -- 84
2019-11-30 22:00:00 19.6 9 Noroeste 18 Norte 0 -- -- 85
2019-11-30 21:00:00 20.2 12 Norte 22 Norte 0 -- -- 86
2019-11-30 20:00:00 20.1 8 Noroeste 16 Noroeste 0 -- -- 85
2019-11-30 19:00:00 20.6 10 Norte 17 Norte 0 -- -- 83
2019-11-30 18:00:00 21.3 9 Norte 18 Norte 0 -- -- 82
2019-11-30 17:00:00 22.1 12 Norte 22 Norte 0 -- -- 77
2019-11-30 16:00:00 22.9 14 Norte 24 Norte 0 -- -- 75
2019-11-30 15:00:00 23.2 14 Norte 21 Norte 0 -- -- 71
2019-11-30 14:00:00 23.3 11 Nordeste 17 Nordeste 0 -- -- 69
2019-11-30 13:00:00 23.9 9 Nordeste 14 Nordeste 0 -- -- 66
2019-11-30 12:00:00 23.9 9 Nordeste 15 Nordeste 0 -- -- 66
2019-11-30 11:00:00 24.2 11 Nordeste 15 Nordeste 0 -- -- 49
2019-11-30 10:00:00 22.8 5 Norte 14 Noroeste 0 -- -- 68
2019-11-30 09:00:00 20.5 4 Noroeste 20 Noroeste 0 -- -- 78
2019-11-30 08:00:00 18 6 Noroeste 17 Noroeste 0 -- -- 83
2019-11-30 07:00:00 17.6 7 Noroeste 14 Noroeste 0 -- -- 79
2019-11-30 06:00:00 18.6 10 Noroeste 23 Noroeste 0 -- -- 82
2019-11-30 05:00:00 17.9 5 Noroeste 13 Noroeste 0 -- -- 76
2019-11-30 04:00:00 17 8 Noroeste 10 Noroeste 0 -- -- 62
2019-11-30 03:00:00 17.6 9 Noroeste 12 Noroeste 0 -- -- 65
2019-11-30 02:00:00 17.6 8 Noroeste 12 Noroeste 0 -- -- 57
2019-11-30 01:00:00 18.5 8 Noroeste 14 Noroeste 0 -- -- 58
2019-11-30 00:00:00 18.8 8 Noroeste 19 Noroeste 0 -- -- 68
2019-11-29 23:00:00 19.5 15 Noroeste 20 Oeste 0 -- -- 75
2019-11-29 22:00:00 19.3 11 Noroeste 15 Oeste 0 -- -- 80
2019-11-29 21:00:00 20 8 Noroeste 15 Noroeste 0 -- -- 83
2019-11-29 20:00:00 20.6 9 Noroeste 16 Noroeste 0 -- -- 83
2019-11-29 19:00:00 20.9 8 Noroeste 13 Noroeste 0 -- -- 80
2019-11-29 18:00:00 21.8 8 Norte 13 Norte 0 -- -- 75
2019-11-29 17:00:00 22.8 7 Norte 12 Nordeste 0 -- -- 71
2019-11-29 16:00:00 23.5 5 Este 10 Este 0 -- -- 59
2019-11-29 15:00:00 24.1 6 Este 9 Este 0 -- -- 63
2019-11-29 14:00:00 23.4 4 Este 11 Este 0 -- -- 63
2019-11-29 13:00:00 23.5 5 Este 13 Nordeste 0 -- -- 66
2019-11-29 12:00:00 23.4 8 Nordeste 14 Norte 0 -- -- 66
2019-11-29 11:00:00 22.7 8 Nordeste 14 Nordeste 0 -- -- 70
2019-11-29 10:00:00 21.8 8 Norte 14 Norte 0 -- -- 76
2019-11-29 09:00:00 20.1 4 Noroeste 12 Noroeste 0 -- -- 83
2019-11-29 08:00:00 18 5 Noroeste 17 Noroeste 0 -- -- 85
2019-11-29 07:00:00 17.6 10 Noroeste 15 Noroeste 0 -- -- 85
2019-11-29 06:00:00 18.3 8 Noroeste 17 Noroeste 0 -- -- 84
2019-11-29 05:00:00 18.5 11 Noroeste 16 Noroeste 0 -- -- 83
2019-11-29 04:00:00 18.5 10 Noroeste 17 Noroeste 0 -- -- 83
2019-11-29 03:00:00 18.6 10 Noroeste 16 Noroeste 0 -- -- 80
2019-11-29 02:00:00 19.1 10 Noroeste 19 Noroeste 0 -- -- 79
2019-11-29 01:00:00 19 10 Noroeste 19 Noroeste 0 -- -- 81
2019-11-29 00:00:00 19.1 10 Noroeste 18 Noroeste 0 -- -- 80
2019-11-28 23:00:00 19.2 12 Noroeste 17 Noroeste 0 -- -- 80
2019-11-28 22:00:00 19.3 8 Noroeste 20 Norte 0 -- -- 80
2019-11-28 21:00:00 20 11 Norte 22 Norte 0 -- -- 82
2019-11-28 20:00:00 20.2 10 Norte 21 Norte 0 -- -- 81
2019-11-28 19:00:00 20.1 10 Norte 22 Norte 0 -- -- 80
2019-11-28 18:00:00 20.2 10 Norte 24 Norte 0 -- -- 78
2019-11-28 17:00:00 20.5 13 Norte 25 Norte 0 -- -- 77
2019-11-28 16:00:00 20.7 13 Norte 21 Norte 0 -- -- 74
2019-11-28 15:00:00 21 11 Norte 21 Norte 0 -- -- 73
2019-11-28 14:00:00 21.1 14 Norte 21 Nordeste 0 -- -- 72
2019-11-28 13:00:00 20.8 13 Nordeste 23 Norte 0 -- -- 73
2019-11-28 12:00:00 20.9 14 Nordeste 23 Nordeste 0 -- -- 70
2019-11-28 11:00:00 21.4 13 Norte 22 Norte 0 -- -- 66
2019-11-28 10:00:00 20.9 12 Norte 21 Norte 0 -- -- 67
2019-11-28 09:00:00 20 12 Norte 18 Noroeste 0 -- -- 70
2019-11-28 08:00:00 19.4 7 Norte 15 Norte 0 -- -- 71
2019-11-28 07:00:00 19.5 8 Norte 14 Norte 0 -- -- 73
2019-11-28 06:00:00 19.5 8 Norte 17 Nordeste 0 -- -- 71
2019-11-28 05:00:00 19.6 12 Norte 22 Norte 0 -- -- 72
2019-11-28 04:00:00 19.5 11 Norte 20 Nordeste 0 -- -- 73
2019-11-28 03:00:00 19.3 8 Norte 20 Norte 0 -- -- 73
2019-11-28 02:00:00 19.7 11 Norte 21 Norte 0 -- -- 75
2019-11-28 01:00:00 19.7 10 Norte 22 Norte 0 -- -- 76
2019-11-28 00:00:00 19.8 13 Norte 24 Norte 0 -- -- 76
2019-11-27 23:00:00 19.8 13 Norte 24 Norte 0 -- -- 74
2019-11-27 22:00:00 20 13 Norte 25 Norte 0 -- -- 74
2019-11-27 21:00:00 19.9 12 Norte 26 Norte 0 -- -- 75
2019-11-27 20:00:00 19.9 13 Norte 26 Norte 0 -- -- 74
2019-11-27 19:00:00 20.1 13 Norte 26 Norte 0 -- -- 73
2019-11-27 18:00:00 20.2 13 Norte 25 Noroeste 0 -- -- 70
2019-11-27 17:00:00 21.2 14 Norte 28 Norte 0 -- -- 67
2019-11-27 16:00:00 21.5 17 Norte 31 Norte 0 -- -- 67
2019-11-27 15:00:00 22 17 Norte 27 Norte 0 -- -- 65
2019-11-27 14:00:00 21.9 17 Norte 29 Nordeste 0 -- -- 65
2019-11-27 13:00:00 21.9 17 Norte 28 Norte 0 -- -- 66
2019-11-27 05:00:00 -- -- -- -- -- -- -- -- --
2019-11-27 04:00:00 -- -- -- -- -- -- -- -- --
2019-11-27 03:00:00 19.8 10 Norte 19 Norte 0 -- -- 72
2019-11-27 02:00:00 19.9 10 Noroeste 23 Norte 0 -- -- 72
2019-11-27 01:00:00 20 13 Norte 24 Norte 0 -- -- 73
2019-11-27 00:00:00 19.7 12 Norte 26 Norte 0 -- -- 73
2019-11-26 23:00:00 20 14 Norte 27 Norte 0 -- -- 73
2019-11-26 22:00:00 20 15 Norte 26 Norte 0 -- -- 72
2019-11-26 21:00:00 20.2 14 Norte 27 Noroeste 0 -- -- 73
2019-11-26 20:00:00 19.9 16 Norte 27 Norte 0 -- -- 73
2019-11-26 19:00:00 20.2 16 Norte 31 Noroeste 0 -- -- 71
2019-11-26 18:00:00 20.4 18 Norte 32 Norte 0 -- -- 71
2019-11-26 17:00:00 21.3 17 Norte 32 Nordeste 0 -- -- 68
2019-11-26 16:00:00 22.1 16 Norte 33 Nordeste 0 -- -- 65
2019-11-26 15:00:00 22 17 Norte 29 Norte 0 -- -- 64
2019-11-26 14:00:00 22 17 Norte 29 Norte 0 -- -- 65
2019-11-26 13:00:00 22 16 Norte 30 Norte 0 -- -- 64
2019-11-26 12:00:00 22.1 16 Norte 25 Norte 0 -- -- 64
2019-11-26 11:00:00 21.6 15 Norte 25 Norte 0 -- -- 65
2019-11-26 10:00:00 21.3 14 Norte 23 Norte 0 -- -- 65
2019-11-26 09:00:00 20.4 12 Norte 23 Norte 0 -- -- 69
2019-11-26 08:00:00 19.8 9 Norte 19 Norte 0 -- -- 70
2019-11-26 07:00:00 19.6 11 Norte 22 Norte 0 -- -- 70
2019-11-26 06:00:00 19.7 14 Norte 26 Norte 0 -- -- 71
2019-11-26 05:00:00 19.8 13 Norte 24 Noroeste 0 -- -- 72
2019-11-26 04:00:00 19.7 14 Norte 26 Norte 0 -- -- 69
2019-11-26 03:00:00 19.9 10 Norte 24 Norte 0 -- -- 71
2019-11-26 02:00:00 19.9 10 Norte 21 Norte 0 -- -- 69
2019-11-26 01:00:00 19.9 13 Norte 25 Norte 0 -- -- 67
2019-11-26 00:00:00 20 14 Norte 26 Norte 0 -- -- 71
2019-11-25 23:00:00 20 12 Norte 24 Norte 0 -- -- 72
2019-11-25 22:00:00 20.2 10 Norte 24 Norte 0 -- -- 73
2019-11-25 21:00:00 20 12 Norte 26 Norte 0 -- -- 71
2019-11-25 20:00:00 20 13 Norte 25 Norte 0 -- -- 72
2019-11-25 19:00:00 20.2 12 Norte 31 Norte 0 -- -- 70
2019-11-25 18:00:00 20.3 18 Norte 31 Norte 0 -- -- 68
2019-11-25 17:00:00 21.1 14 Norte 28 Norte 0 -- -- 64
2019-11-25 16:00:00 21.1 13 Norte 25 Nordeste 0 -- -- 64
2019-11-25 15:00:00 21.9 16 Nordeste 27 Nordeste 0 -- -- 62
2019-11-25 14:00:00 22.2 16 Norte 27 Nordeste 0 -- -- 60
2019-11-25 13:00:00 21.8 18 Nordeste 30 Norte 0 -- -- 61
2019-11-25 12:00:00 21.7 12 Norte 27 Nordeste 0 -- -- 62
2019-11-25 11:00:00 21.8 17 Nordeste 30 Nordeste 0 -- -- 65
2019-11-25 10:00:00 21.5 18 Nordeste 27 Nordeste 0 -- -- 62
2019-11-25 09:00:00 19.7 8 Noroeste 18 Noroeste 0 -- -- 66
2019-11-25 08:00:00 18.5 11 Noroeste 21 Noroeste 0 -- -- 67
2019-11-25 07:00:00 18.2 12 Noroeste 23 Noroeste 0 -- -- 68
2019-11-25 06:00:00 18.9 10 Norte 20 Norte 0 -- -- 67
2019-11-25 05:00:00 18.5 13 Noroeste 23 Noroeste 0 -- -- 66
2019-11-25 04:00:00 17.7 8 Noroeste 15 Noroeste 0 -- -- 66
2019-11-25 03:00:00 18.6 9 Noroeste 21 Norte 0 -- -- 64
2019-11-25 02:00:00 19.6 13 Norte 28 Norte 0 -- -- 59
2019-11-25 01:00:00 19.9 9 Noroeste 25 Norte 0 -- -- 60
2019-11-25 00:00:00 20.2 14 Norte 26 Norte 0 -- -- 60
2019-11-24 23:00:00 20.3 13 Norte 26 Norte 0 -- -- 60
2019-11-24 22:00:00 20.4 14 Norte 28 Norte 0 -- -- 63
2019-11-24 21:00:00 20.4 13 Norte 32 Norte 0 -- -- 59
2019-11-24 20:00:00 20.3 18 Norte 34 Norte 0 -- -- 61
2019-11-24 19:00:00 20.3 14 Norte 28 Norte 0 -- -- 66
2019-11-24 18:00:00 20.5 17 Norte 31 Norte 0 -- -- 68
2019-11-24 17:00:00 20.9 17 Norte 33 Norte 0 -- -- 65
2019-11-24 16:00:00 21.5 19 Norte 32 Norte 0 -- -- 65
2019-11-24 15:00:00 22.3 20 Norte 31 Norte 0 -- -- 64
2019-11-24 14:00:00 22.3 19 Norte 31 Norte 0 -- -- 66
2019-11-24 13:00:00 22.6 19 Norte 31 Norte 0 -- -- 63
2019-11-24 12:00:00 22.1 17 Norte 31 Norte 0 -- -- 68
2019-11-24 11:00:00 22 15 Norte 28 Norte 0 -- -- 70
2019-11-24 10:00:00 21.2 14 Norte 29 Noroeste 0 -- -- 70
2019-11-24 09:00:00 20.8 12 Norte 22 Noroeste 0 -- -- 77
2019-11-24 08:00:00 19.5 12 Noroeste 26 Noroeste 0 -- -- 82
2019-11-24 07:00:00 19.4 14 Norte 28 Norte 0 -- -- 81
2019-11-24 06:00:00 19.5 11 Norte 24 Noroeste 0 -- -- 81
2019-11-24 05:00:00 19.3 9 Noroeste 19 Noroeste 0 -- -- 80
2019-11-24 04:00:00 19.4 12 Noroeste 19 Noroeste 0 -- -- 81
2019-11-24 03:00:00 19.1 7 Noroeste 21 Noroeste 0 -- -- 83
2019-11-24 02:00:00 19.7 9 Noroeste 18 Noroeste 0 -- -- 80
2019-11-24 01:00:00 19.9 8 Noroeste 22 Noroeste 0 -- -- 80
2019-11-24 00:00:00 20.1 13 Noroeste 22 Noroeste 0 -- -- 79
2019-11-23 23:00:00 20.2 9 Norte 17 Noroeste 0 -- -- 81
2019-11-23 22:00:00 20 8 Noroeste 19 Noroeste 0 -- -- 77
2019-11-23 21:00:00 19.9 10 Noroeste 20 Noroeste 0 -- -- 76
2019-11-23 20:00:00 20.2 12 Noroeste 25 Norte 0 -- -- 81
2019-11-23 19:00:00 20.9 13 Norte 26 Norte 0 -- -- 82
2019-11-23 18:00:00 21.4 13 Norte 26 Noroeste 0 -- -- 80
2019-11-23 17:00:00 21.6 13 Norte 28 Noroeste 0 -- -- 81
2019-11-23 16:00:00 22.3 19 Norte 35 Norte 0.8 -- -- 79
2019-11-23 15:00:00 24.4 19 Noroeste 31 Noroeste 0 -- -- 61
2019-11-23 14:00:00 24.5 18 Norte 37 Noroeste 0 -- -- 60
2019-11-23 13:00:00 23.7 18 Noroeste 37 Noroeste 0 -- -- 65
2019-11-23 12:00:00 23.9 18 Noroeste 33 Noroeste 0 -- -- 62
2019-11-23 11:00:00 23.5 20 Noroeste 33 Noroeste 0 -- -- 64
2019-11-23 10:00:00 23 18 Norte 31 Norte 0 -- -- 69
2019-11-23 09:00:00 21.4 11 Noroeste 21 Oeste 0 -- -- 80
2019-11-23 08:00:00 20 8 Noroeste 14 Noroeste 0.2 -- -- 85
2019-11-23 07:00:00 20 7 Noroeste 18 Norte 0 -- -- 83
2019-11-23 06:00:00 19.5 8 Noroeste 16 Noroeste 0 -- -- 84
2019-11-23 05:00:00 17.1 4 Oeste 13 Oeste 0 -- -- 85
2019-11-23 04:00:00 16.9 2 Oeste 7 Oeste 0 -- -- 85
2019-11-23 03:00:00 17 2 Sudoeste 9 Sudoeste 0 -- -- 82
2019-11-23 02:00:00 17 4 Oeste 6 Oeste 0 -- -- 83
2019-11-23 01:00:00 17.7 5 Noroeste 10 Noroeste 0 -- -- 82
2019-11-23 00:00:00 18.2 8 Noroeste 10 Oeste 0 -- -- 80
2019-11-22 23:00:00 17.5 4 Oeste 6 Oeste 0 -- -- 80
2019-11-22 22:00:00 18.2 3 Oeste 4 Oeste 0 -- -- 78
2019-11-22 21:00:00 19.5 2 Sudoeste 5 Noroeste 0 -- -- 74
2019-11-22 20:00:00 20 3 Norte 8 Norte 0 -- -- 72
2019-11-22 19:00:00 21.2 5 Norte 17 Norte 0 -- -- 66
2019-11-22 18:00:00 21.7 8 Norte 24 Norte 0 -- -- 67
2019-11-22 17:00:00 22.1 12 Nordeste 20 Norte 0 -- -- 69
2019-11-22 16:00:00 22.8 12 Norte 24 Norte 0 -- -- 65
2019-11-22 15:00:00 23 17 Norte 30 Norte 0 -- -- 63
2019-11-22 14:00:00 23.7 16 Norte 31 Norte 0 -- -- 59
2019-11-22 13:00:00 23.7 17 Norte 30 Norte 0 -- -- 62
2019-11-22 12:00:00 23.2 20 Norte 32 Norte 0 -- -- 63
2019-11-22 11:00:00 22.1 15 Norte 26 Norte 0 -- -- 74
2019-11-22 10:00:00 20.9 12 Norte 29 Norte 0 -- -- 84
2019-11-22 09:00:00 20.2 13 Norte 25 Norte 0 -- -- 85
2019-11-22 08:00:00 17.5 10 Noroeste 14 Noroeste 0 -- -- 87
2019-11-22 07:00:00 15.8 5 Noroeste 11 Oeste 0 -- -- 83
2019-11-22 06:00:00 16.5 8 Noroeste 11 Oeste 0 -- -- 81
2019-11-22 05:00:00 16.8 6 Noroeste 12 Oeste 0 -- -- 82
2019-11-22 04:00:00 15.8 7 Noroeste 11 Oeste 0 -- -- 81
2019-11-22 03:00:00 16.1 6 Oeste 12 Oeste 0 -- -- 83
2019-11-22 02:00:00 16.4 3 Oeste 9 Oeste 0 -- -- 82
2019-11-22 01:00:00 16.3 5 Oeste 9 Oeste 0 -- -- 82
2019-11-22 00:00:00 17 8 Oeste 10 Oeste 0 -- -- 83
2019-11-21 23:00:00 16.8 4 Oeste 10 Oeste 0 -- -- 81
2019-11-21 22:00:00 17 8 Oeste 12 Oeste 0 -- -- 81
2019-11-21 21:00:00 17.4 5 Oeste 11 Oeste 0 -- -- 80
2019-11-21 20:00:00 17.8 6 Oeste 9 Oeste 0 -- -- 78
2019-11-21 19:00:00 18.8 3 Noroeste 4 Noroeste 0 -- -- 76
2019-11-21 18:00:00 20.6 2 Nordeste 9 Nordeste 0 -- -- 71
2019-11-21 17:00:00 21 6 Nordeste 14 Nordeste 0 -- -- 69
2019-11-21 16:00:00 21.4 6 Este 11 Este 0 -- -- 68
2019-11-21 15:00:00 21.2 4 Este 8 Este 0 -- -- 68
2019-11-21 14:00:00 20.9 5 Este 9 Nordeste 0 -- -- 68
2019-11-21 13:00:00 21.1 6 Este 11 Este 0 -- -- 70
2019-11-21 12:00:00 21.3 5 Este 13 Este 0 -- -- 71
2019-11-21 11:00:00 21.2 9 Nordeste 14 Nordeste 0 -- -- 70
2019-11-21 10:00:00 21.3 7 Nordeste 12 Nordeste 0 -- -- 69
2019-11-21 09:00:00 20 3 Noroeste 11 Oeste 0 -- -- 71
2019-11-21 08:00:00 16.7 9 Oeste 14 Oeste 0 -- -- 76
2019-11-21 07:00:00 -- -- -- -- -- -- -- -- --
2019-11-21 06:00:00 -- -- -- -- -- -- -- -- --
2019-11-21 05:00:00 -- -- -- -- -- -- -- -- --
2019-11-21 04:00:00 -- -- -- -- -- -- -- -- --
2019-11-21 03:00:00 -- -- -- -- -- -- -- -- --
2019-11-21 02:00:00 -- -- -- -- -- -- -- -- --
2019-11-21 01:00:00 -- -- -- -- -- -- -- -- --
2019-11-21 00:00:00 -- -- -- -- -- -- -- -- --
2019-11-20 23:00:00 -- -- -- -- -- -- -- -- --
2019-11-20 22:00:00 -- -- -- -- -- -- -- -- --
2019-11-20 21:00:00 -- -- -- -- -- -- -- -- --
2019-11-20 20:00:00 -- -- -- -- -- -- -- -- --
2019-11-20 19:00:00 20.7 6 Nordeste 13 Nordeste 0 -- -- 70
2019-11-20 18:00:00 21 8 Nordeste 14 Este 0 -- -- 68
2019-11-20 17:00:00 21.7 10 Nordeste 14 Nordeste 0 -- -- 64
2019-11-20 16:00:00 22.3 9 Este 17 Este 0 -- -- 60
2019-11-20 15:00:00 22.6 10 Nordeste 17 Norte 0 -- -- 59
2019-11-20 14:00:00 23 9 Este 12 Este 0 -- -- 52
2019-11-20 13:00:00 23.2 5 Sudeste 14 Sudeste 0 -- -- 53
2019-11-20 12:00:00 22.8 6 Sudeste 14 Sudeste 0 -- -- 63
2019-11-20 11:00:00 21.9 6 Sudeste 12 Sudeste 0 -- -- 63
2019-11-20 10:00:00 21.1 4 Sudeste 7 Sur 0 -- -- 66
2019-11-20 09:00:00 18.4 2 Noroeste 7 Oeste 0 -- -- 67
2019-11-20 08:00:00 14.9 6 Oeste 9 Oeste 0 -- -- 76
2019-11-20 07:00:00 14.4 4 Oeste 12 Oeste 0 -- -- 77
2019-11-20 06:00:00 14.6 4 Oeste 10 Oeste 0 -- -- 79
2019-11-20 05:00:00 15 5 Oeste 10 Oeste 0 -- -- 80
2019-11-20 04:00:00 15 5 Oeste 9 Oeste 0 -- -- 78
2019-11-20 03:00:00 15.3 7 Oeste 14 Oeste 0 -- -- 72
2019-11-20 02:00:00 15.3 9 Oeste 13 Oeste 0 -- -- 74
2019-11-20 01:00:00 15.5 8 Oeste 12 Oeste 0 -- -- 79
2019-11-20 00:00:00 15.9 6 Oeste 10 Oeste 0 -- -- 74
2019-11-19 23:00:00 17.3 5 Noroeste 16 Noroeste 0 -- -- 75
2019-11-19 22:00:00 18.1 10 Noroeste 14 Noroeste 0 -- -- 76
2019-11-19 21:00:00 18.1 6 Noroeste 10 Norte 0 -- -- 77
2019-11-19 20:00:00 18.9 7 Noroeste 17 Norte 0 -- -- 75
2019-11-19 19:00:00 19 8 Noroeste 15 Oeste 0 -- -- 77
2019-11-19 18:00:00 19.7 9 Noroeste 28 Noroeste 0 -- -- 74
2019-11-19 17:00:00 21.6 14 Norte 32 Noroeste 0 -- -- 65
2019-11-19 16:00:00 22.2 16 Norte 30 Noroeste 0 -- -- 61
2019-11-19 15:00:00 22 17 Norte 31 Norte 0 -- -- 65
2019-11-19 14:00:00 21.1 17 Norte 31 Norte 0 -- -- 74
2019-11-19 13:00:00 19.2 17 Noroeste 35 Norte 0.2 -- -- 84
2019-11-19 12:00:00 18.8 12 Norte 30 Nordeste 1.6 -- -- 89
2019-11-19 11:00:00 20.9 15 Norte 27 Norte 0 -- -- 72
2019-11-19 10:00:00 20.9 14 Norte 33 Noroeste 0 -- -- 71
2019-11-19 09:00:00 19.5 8 Noroeste 18 Noroeste 0 -- -- 71
2019-11-19 08:00:00 17.1 6 Noroeste 17 Noroeste 0 -- -- 75
2019-11-19 07:00:00 15.6 8 Noroeste 10 Noroeste 0 -- -- 75
2019-11-19 06:00:00 16.8 8 Noroeste 18 Noroeste 0 -- -- 72
2019-11-19 05:00:00 16.5 11 Oeste 17 Oeste 0 -- -- 76
2019-11-19 04:00:00 16.1 9 Noroeste 12 Oeste 0 -- -- 77
2019-11-19 03:00:00 16.7 8 Noroeste 13 Oeste 0 -- -- 78
2019-11-19 02:00:00 16.8 9 Noroeste 22 Oeste 0 -- -- 79
2019-11-19 01:00:00 18.2 14 Noroeste 23 Noroeste 0 -- -- 77
2019-11-19 00:00:00 18.4 10 Noroeste 18 Noroeste 0 -- -- 67
2019-11-18 23:00:00 18 8 Noroeste 15 Noroeste 0 -- -- 71
2019-11-18 22:00:00 18.5 10 Noroeste 17 Noroeste 0 -- -- 71
2019-11-18 21:00:00 19.4 13 Norte 23 Norte 0 -- -- 69
2019-11-18 20:00:00 19.3 9 Norte 21 Noroeste 0 -- -- 70
2019-11-18 19:00:00 19.3 10 Noroeste 20 Noroeste 0 -- -- 68
2019-11-18 18:00:00 19.6 9 Noroeste 19 Noroeste 0 -- -- 65
2019-11-18 17:00:00 20.7 10 Norte 22 Norte 0 -- -- 62
2019-11-18 16:00:00 21.1 12 Norte 19 Noroeste 0 -- -- 60
2019-11-18 15:00:00 21 12 Norte 22 Nordeste 0 -- -- 60
2019-11-18 14:00:00 21.3 13 Norte 21 Norte 0 -- -- 60
2019-11-18 13:00:00 21.6 13 Norte 23 Nordeste 0 -- -- 55
2019-11-18 12:00:00 21.2 14 Norte 24 Nordeste 0 -- -- 56
2019-11-18 11:00:00 20.9 14 Nordeste 26 Norte 0 -- -- 58
2019-11-18 10:00:00 20.3 14 Nordeste 24 Nordeste 0 -- -- 62
2019-11-18 09:00:00 19.9 15 Nordeste 24 Nordeste 0 -- -- 63
2019-11-18 08:00:00 19.1 13 Nordeste 26 Nordeste 0 -- -- 66
2019-11-18 07:00:00 18.8 13 Norte 25 Nordeste 0 -- -- 65
2019-11-18 06:00:00 18.2 12 Norte 23 Norte 0 -- -- 68
2019-11-18 05:00:00 18 10 Noroeste 23 Norte 0 -- -- 66
2019-11-18 04:00:00 17.4 9 Noroeste 16 Noroeste 0 -- -- 68
2019-11-18 03:00:00 17.1 8 Norte 14 Noroeste 0 -- -- 68
2019-11-18 02:00:00 17.3 7 Noroeste 21 Noroeste 0 -- -- 66
2019-11-18 01:00:00 18.3 13 Norte 31 Norte 0 -- -- 64
2019-11-18 00:00:00 18.5 15 Norte 31 Norte 0 -- -- 62
2019-11-17 23:00:00 18.7 18 Norte 33 Nordeste 0 -- -- 60
2019-11-17 22:00:00 18.9 17 Norte 37 Norte 0 -- -- 64
2019-11-17 21:00:00 18.8 18 Norte 33 Norte 0 -- -- 66
2019-11-17 20:00:00 18.9 18 Norte 36 Nordeste 0 -- -- 67
2019-11-17 19:00:00 19 21 Nordeste 31 Nordeste 0 -- -- 66
2019-11-17 18:00:00 18.7 10 Norte 26 Noroeste 0 -- -- 69
2019-11-17 17:00:00 19.5 14 Norte 28 Nordeste 0 -- -- 64
2019-11-17 16:00:00 20 19 Nordeste 32 Nordeste 0 -- -- 61
2019-11-17 15:00:00 20.2 20 Nordeste 35 Nordeste 0 -- -- 59
2019-11-17 14:00:00 18.8 14 Norte 28 Norte 0 -- -- 67
2019-11-17 13:00:00 18.1 30 Nordeste 43 Nordeste 0 -- -- 74
2019-11-17 12:00:00 20.8 20 Nordeste 36 Norte 0 -- -- 51
2019-11-17 11:00:00 19.6 23 Nordeste 40 Nordeste 0 -- -- 59
2019-11-17 10:00:00 19.8 16 Norte 40 Norte 0 -- -- 58
2019-11-17 09:00:00 18.6 30 Nordeste 44 Nordeste 0 -- -- 66
2019-11-17 08:00:00 18.8 15 Norte 30 Norte 0 -- -- 57
2019-11-17 07:00:00 18 14 Norte 36 Norte 0 -- -- 70
2019-11-17 06:00:00 18.5 15 Nordeste 36 Nordeste 0 -- -- 63
2019-11-17 05:00:00 19 16 Norte 45 Norte 0 -- -- 59
2019-11-17 04:00:00 19 19 Nordeste 32 Nordeste 0 -- -- 64
2019-11-17 03:00:00 19.4 19 Nordeste 33 Norte 0 -- -- 62
2019-11-17 02:00:00 18.4 12 Norte 34 Norte 0 -- -- 69
2019-11-17 01:00:00 18.3 17 Norte 33 Norte 0 -- -- 71
2019-11-17 00:00:00 18.5 15 Norte 37 Nordeste 0 -- -- 69
2019-11-16 23:00:00 18.7 19 Norte 39 Norte 0 -- -- 70
2019-11-16 22:00:00 18.5 25 Nordeste 45 Nordeste 0 -- -- 74
2019-11-16 21:00:00 19.4 20 Norte 36 Norte 0 -- -- 67
2019-11-16 20:00:00 19.3 23 Norte 40 Norte 0 -- -- 67
2019-11-16 19:00:00 19.1 22 Norte 43 Norte 0 -- -- 66
2019-11-16 18:00:00 19.9 23 Norte 37 Norte 0 -- -- 59
2019-11-16 17:00:00 20.2 21 Norte 41 Norte 0 -- -- 61
2019-11-16 16:00:00 20.7 21 Norte 42 Norte 0 -- -- 55
2019-11-16 15:00:00 21.9 19 Norte 41 Norte 0 -- -- 47
2019-11-16 14:00:00 20.8 21 Norte 41 Norte 0 -- -- 52
2019-11-16 13:00:00 22 21 Norte 40 Norte 0 -- -- 51
2019-11-16 12:00:00 21.5 24 Norte 41 Noroeste 0 -- -- 46
2019-11-16 11:00:00 20.7 23 Norte 42 Norte 0 -- -- 57
2019-11-16 10:00:00 18.3 24 Noroeste 44 Norte 0 -- -- 72
2019-11-16 09:00:00 19.7 23 Norte 41 Norte 0 -- -- 59
2019-11-16 08:00:00 18.3 17 Norte 43 Norte 0 -- -- 67
2019-11-16 07:00:00 18.4 22 Norte 38 Norte 0 -- -- 72
2019-11-16 06:00:00 18.7 21 Norte 35 Norte 0 -- -- 67
2019-11-16 05:00:00 18.3 18 Norte 43 Norte 0 -- -- 67
2019-11-16 04:00:00 18.1 22 Norte 41 Norte 0.4 -- -- 68
2019-11-16 03:00:00 17.7 13 Norte 36 Norte 0.2 -- -- 74
2019-11-16 02:00:00 18.2 20 Norte 41 Norte 0 -- -- 75
2019-11-16 01:00:00 16.8 13 Noroeste 49 Norte 0 -- -- 73
2019-11-16 00:00:00 18.4 17 Norte 33 Norte 0 -- -- 65
2019-11-15 23:00:00 17.5 21 Norte 51 Norte 0.2 -- -- 79
2019-11-15 22:00:00 19.3 18 Norte 40 Norte 0.2 -- -- 65
2019-11-15 21:00:00 19.1 21 Norte 43 Nordeste 0 -- -- 69
2019-11-15 20:00:00 19.5 18 Norte 34 Norte 0 -- -- 67
2019-11-15 19:00:00 19.6 19 Norte 38 Norte 0 -- -- 61
2019-11-15 18:00:00 19.9 18 Norte 39 Norte 0 -- -- 59
2019-11-15 17:00:00 20.4 21 Norte 43 Norte 0 -- -- 52
2019-11-15 16:00:00 20.5 19 Norte 44 Norte 0 -- -- 59
2019-11-15 15:00:00 21.2 22 Norte 41 Nordeste 0 -- -- 58
2019-11-15 14:00:00 21 21 Norte 42 Nordeste 0 -- -- 55
2019-11-15 13:00:00 21.1 17 Norte 43 Nordeste 0 -- -- 63
2019-11-15 12:00:00 20.4 22 Norte 42 Nordeste 0 -- -- 71
2019-11-15 11:00:00 20.1 22 Norte 43 Norte 0 -- -- 71
2019-11-15 10:00:00 19.1 22 Norte 42 Norte 0 -- -- 80
2019-11-15 09:00:00 19.8 20 Norte 36 Norte 0 -- -- 76
2019-11-15 08:00:00 18.2 13 Noroeste 37 Norte 0.2 -- -- 84
2019-11-15 07:00:00 19.9 16 Norte 30 Norte 0 -- -- 75
2019-11-15 06:00:00 19.6 12 Noroeste 27 Noroeste 0 -- -- 70
2019-11-15 05:00:00 19.5 14 Noroeste 26 Norte 0 -- -- 64
2019-11-15 04:00:00 20.2 18 Norte 35 Norte 0 -- -- 60
2019-11-15 03:00:00 20.2 16 Norte 40 Norte 0 -- -- 60
2019-11-15 02:00:00 20.5 18 Norte 41 Norte 0 -- -- 66
2019-11-15 01:00:00 20.6 20 Norte 37 Norte 0 -- -- 61
2019-11-15 00:00:00 19.2 21 Norte 37 Norte 0 -- -- 71
2019-11-14 23:00:00 20.7 20 Norte 40 Norte 0 -- -- 64
2019-11-14 22:00:00 20.6 21 Norte 40 Nordeste 0 -- -- 69
2019-11-14 21:00:00 20.6 16 Norte 32 Norte 0 -- -- 71
2019-11-14 20:00:00 20.9 17 Norte 35 Norte 0 -- -- 69
2019-11-14 19:00:00 20.8 15 Norte 30 Norte 0 -- -- 71
2019-11-14 18:00:00 20.8 13 Norte 25 Norte 0 -- -- 69
2019-11-14 17:00:00 21.3 13 Norte 28 Norte 0 -- -- 69
2019-11-14 16:00:00 21.9 14 Norte 28 Norte 0 -- -- 68
2019-11-14 15:00:00 21.9 17 Norte 32 Nordeste 0 -- -- 65
2019-11-14 14:00:00 22.4 15 Norte 31 Norte 0 -- -- 66
2019-11-14 13:00:00 21.9 14 Norte 35 Nordeste 0 -- -- 69
2019-11-14 12:00:00 22.2 17 Norte 31 Norte 0 -- -- 66
2019-11-14 11:00:00 22.4 14 Norte 28 Norte 0 -- -- 63
2019-11-14 10:00:00 21.8 15 Norte 30 Norte 0 -- -- 64
2019-11-14 09:00:00 21 14 Norte 30 Norte 0 -- -- 67
2019-11-14 08:00:00 20.7 15 Norte 29 Norte 0 -- -- 71
2019-11-14 07:00:00 20.4 15 Norte 29 Noroeste 0 -- -- 67
2019-11-14 06:00:00 20.3 18 Norte 30 Norte 0 -- -- 65
2019-11-14 05:00:00 20.3 17 Norte 34 Norte 0 -- -- 66
2019-11-14 04:00:00 20.2 14 Norte 36 Norte 0 -- -- 68
2019-11-14 03:00:00 20.3 17 Norte 33 Norte 0 -- -- 67
2019-11-14 02:00:00 20.4 19 Norte 35 Norte 0 -- -- 63
2019-11-14 01:00:00 20.3 19 Norte 35 Norte 0 -- -- 64
2019-11-14 00:00:00 20.3 18 Norte 35 Norte 0 -- -- 64
2019-11-13 23:00:00 20.4 19 Norte 36 Norte 0 -- -- 62
2019-11-13 22:00:00 20.4 19 Norte 38 Norte 0 -- -- 65
2019-11-13 21:00:00 20.5 19 Norte 37 Norte 0 -- -- 65
2019-11-13 20:00:00 20.7 21 Norte 39 Norte 0 -- -- 63
2019-11-13 19:00:00 20.6 21 Norte 40 Norte 0 -- -- 62
2019-11-13 18:00:00 20.9 24 Norte 40 Norte 0 -- -- 65
2019-11-13 17:00:00 21.7 22 Norte 40 Norte 0 -- -- 63
2019-11-13 16:00:00 22.2 23 Norte 37 Noroeste 0 -- -- 61
2019-11-13 15:00:00 22.9 23 Norte 44 Noroeste 0 -- -- 59
2019-11-13 14:00:00 22.9 23 Norte 39 Norte 0 -- -- 59
2019-11-13 13:00:00 23.2 19 Norte 39 Norte 0 -- -- 60
2019-11-13 12:00:00 23 22 Norte 40 Norte 0 -- -- 59
2019-11-13 11:00:00 22.3 20 Norte 39 Norte 0 -- -- 63
2019-11-13 10:00:00 22.1 22 Norte 39 Norte 0 -- -- 64
2019-11-13 09:00:00 21 22 Norte 40 Norte 0 -- -- 65
2019-11-13 08:00:00 20.6 20 Norte 40 Norte 0 -- -- 69
2019-11-13 07:00:00 20.4 20 Norte 37 Norte 0 -- -- 70
2019-11-13 06:00:00 20.4 20 Norte 36 Noroeste 0 -- -- 72
2019-11-13 05:00:00 20.1 19 Norte 33 Norte 0 -- -- 72
2019-11-13 04:00:00 19.4 15 Noroeste 30 Norte 0 -- -- 74
2019-11-13 03:00:00 19.4 16 Noroeste 29 Noroeste 0 -- -- 74
2019-11-13 02:00:00 19.4 15 Noroeste 31 Noroeste 0 -- -- 73
2019-11-13 01:00:00 19.5 17 Noroeste 32 Noroeste 0 -- -- 73
2019-11-13 00:00:00 19.9 14 Norte 38 Noroeste 0 -- -- 72
2019-11-12 23:00:00 20.2 22 Norte 39 Noroeste 0 -- -- 72
2019-11-12 22:00:00 20.3 20 Norte 43 Norte 0 -- -- 71
2019-11-12 21:00:00 20.5 16 Norte 36 Norte 0 -- -- 69
2019-11-12 20:00:00 20.7 18 Norte 44 Norte 0 -- -- 70
2019-11-12 19:00:00 20.9 26 Norte 44 Noroeste 0 -- -- 70
2019-11-12 18:00:00 21.1 25 Norte 45 Norte 0 -- -- 75
2019-11-12 17:00:00 22.2 27 Norte 44 Noroeste 0 -- -- 67
2019-11-12 16:00:00 22.7 24 Norte 45 Norte 0 -- -- 71
2019-11-12 15:00:00 23.1 25 Norte 44 Norte 0 -- -- 67
2019-11-12 14:00:00 23.3 26 Norte 48 Norte 0 -- -- 65
2019-11-12 13:00:00 23 25 Norte 42 Norte 0 -- -- 70
2019-11-12 12:00:00 23.1 27 Norte 47 Norte 0 -- -- 64
2019-11-12 11:00:00 22.6 22 Norte 46 Norte 0 -- -- 67
2019-11-12 10:00:00 21.7 19 Norte 34 Norte 0 -- -- 76
2019-11-12 09:00:00 21.4 20 Norte 36 Noroeste 0 -- -- 72
2019-11-12 08:00:00 20.1 22 Norte 45 Norte 0 -- -- 78
2019-11-12 07:00:00 21 24 Norte 49 Norte 0 -- -- 69
2019-11-12 06:00:00 21 21 Norte 40 Noroeste 0 -- -- 69
2019-11-12 05:00:00 20.6 22 Norte 39 Norte 0 -- -- 75
2019-11-12 04:00:00 20.8 22 Norte 42 Norte 0 -- -- 65
2019-11-12 03:00:00 20.9 24 Norte 48 Norte 0 -- -- 67
2019-11-12 02:00:00 21 24 Norte 48 Norte 0 -- -- 67
2019-11-12 01:00:00 21 25 Norte 44 Norte 0 -- -- 67
2019-11-12 00:00:00 21 23 Norte 45 Noroeste 0 -- -- 68
2019-11-11 23:00:00 21.1 22 Norte 48 Norte 0 -- -- 68
2019-11-11 22:00:00 21.1 24 Norte 45 Norte 0 -- -- 68
2019-11-11 21:00:00 21.2 24 Norte 47 Norte 0 -- -- 67
2019-11-11 20:00:00 21.1 22 Norte 45 Norte 0 -- -- 67
2019-11-11 19:00:00 21.2 29 Norte 46 Norte 0 -- -- 68
2019-11-11 18:00:00 21.3 29 Norte 51 Norte 0 -- -- 67
2019-11-11 17:00:00 21.7 28 Norte 51 Norte 0 -- -- 66
2019-11-11 16:00:00 21.7 29 Norte 49 Norte 0 -- -- 64
2019-11-11 15:00:00 21.9 28 Norte 49 Norte 0 -- -- 65
2019-11-11 14:00:00 22.4 25 Norte 45 Norte 0 -- -- 60
2019-11-11 13:00:00 22.5 27 Norte 45 Norte 0 -- -- 60
2019-11-11 12:00:00 21.6 25 Norte 45 Norte 0 -- -- 64
2019-11-11 11:00:00 22.9 23 Norte 45 Norte 0 -- -- 57
2019-11-11 10:00:00 22.3 23 Norte 40 Norte 0 -- -- 62
2019-11-11 09:00:00 21.4 22 Norte 42 Norte 0 -- -- 63
2019-11-11 08:00:00 20.6 27 Norte 44 Noroeste 0 -- -- 66
2019-11-11 07:00:00 20.1 21 Norte 43 Norte 0 -- -- 64
2019-11-11 06:00:00 20.1 18 Norte 39 Norte 0 -- -- 66
2019-11-11 05:00:00 20.6 21 Norte 40 Norte 0 -- -- 60
2019-11-11 04:00:00 20.5 18 Norte 38 Norte 0 -- -- 68
2019-11-11 03:00:00 20.7 22 Norte 43 Norte 0 -- -- 60
2019-11-11 02:00:00 20.6 20 Norte 37 Norte 0 -- -- 68
2019-11-11 01:00:00 20.5 22 Norte 38 Norte 0 -- -- 60
2019-11-11 00:00:00 20.8 19 Norte 35 Norte 0 -- -- 64
2019-11-10 23:00:00 20.8 20 Norte 36 Norte 0 -- -- 61
2019-11-10 22:00:00 20.7 17 Norte 40 Norte 0 -- -- 64
2019-11-10 21:00:00 20.6 20 Norte 40 Norte 0 -- -- 68
2019-11-10 20:00:00 20.9 23 Norte 40 Norte 0 -- -- 69
2019-11-10 19:00:00 21.4 18 Norte 35 Norte 0 -- -- 74
2019-11-10 18:00:00 21.6 18 Norte 34 Norte 0 -- -- 72
2019-11-10 17:00:00 21.9 16 Norte 35 Norte 0 -- -- 69
2019-11-10 16:00:00 22.6 18 Norte 36 Norte 0 -- -- 65
2019-11-10 15:00:00 22.8 20 Norte 37 Norte 0 -- -- 61
2019-11-10 14:00:00 23.2 20 Norte 35 Norte 0 -- -- 57
2019-11-10 13:00:00 22.9 22 Norte 37 Nordeste 0 -- -- 58
2019-11-10 12:00:00 22.2 22 Norte 39 Nordeste 0 -- -- 60
2019-11-10 11:00:00 22.3 22 Norte 42 Norte 0 -- -- 59
2019-11-10 10:00:00 21.4 21 Norte 40 Nordeste 0 -- -- 59
2019-11-10 09:00:00 20.5 19 Norte 39 Nordeste 0 -- -- 64
2019-11-10 08:00:00 20.3 19 Norte 39 Norte 0 -- -- 62
2019-11-10 07:00:00 20.1 18 Norte 35 Norte 0 -- -- 61
2019-11-10 06:00:00 19.9 18 Norte 41 Norte 0 -- -- 60
2019-11-10 05:00:00 20.1 21 Norte 41 Norte 0 -- -- 61
2019-11-10 04:00:00 20.3 23 Norte 43 Norte 0 -- -- 63
2019-11-10 03:00:00 20.5 21 Norte 40 Norte 0 -- -- 58
2019-11-10 02:00:00 20.2 21 Norte 38 Norte 0 -- -- 64
2019-11-10 01:00:00 20.4 23 Norte 44 Nordeste 0 -- -- 61
2019-11-10 00:00:00 20.6 23 Norte 51 Nordeste 0 -- -- 60
2019-11-09 23:00:00 20.5 25 Nordeste 45 Norte 0 -- -- 65
2019-11-09 22:00:00 19.7 16 Norte 38 Nordeste 0 -- -- 73
2019-11-09 21:00:00 20.1 22 Norte 45 Norte 0 -- -- 70
2019-11-09 20:00:00 20.4 20 Norte 43 Norte 0 -- -- 70
2019-11-09 19:00:00 21.1 21 Norte 49 Norte 0 -- -- 62
2019-11-09 18:00:00 21.1 21 Norte 41 Norte 0 -- -- 59
2019-11-09 17:00:00 21.3 26 Norte 47 Norte 0 -- -- 56
2019-11-09 16:00:00 21.5 23 Norte 45 Nordeste 0 -- -- 56
2019-11-09 15:00:00 22.3 23 Norte 47 Norte 0 -- -- 58
2019-11-09 14:00:00 22.8 28 Norte 45 Norte 0 -- -- 54
2019-11-09 13:00:00 22.4 27 Norte 48 Norte 0 -- -- 59
2019-11-09 12:00:00 22.8 24 Norte 49 Norte 0 -- -- 58
2019-11-09 11:00:00 22.6 24 Norte 40 Norte 0 -- -- 59
2019-11-09 10:00:00 21.3 19 Norte 49 Norte 0 -- -- 63
2019-11-09 09:00:00 21.3 20 Norte 36 Norte 0 -- -- 66
2019-11-09 08:00:00 20.7 19 Norte 43 Norte 0 -- -- 68
2019-11-09 07:00:00 20.4 18 Norte 44 Nordeste 0 -- -- 68
2019-11-09 06:00:00 20.9 19 Norte 39 Norte 0 -- -- 64
2019-11-09 05:00:00 20.7 22 Norte 41 Norte 0 -- -- 61
2019-11-09 04:00:00 20.7 20 Norte 42 Norte 0 -- -- 60
2019-11-09 03:00:00 20.9 21 Norte 35 Norte 0 -- -- 58
2019-11-09 02:00:00 20.7 17 Norte 31 Norte 0 -- -- 58
2019-11-09 01:00:00 20.6 17 Norte 36 Norte 0 -- -- 58
2019-11-09 00:00:00 20.8 18 Norte 37 Norte 0 -- -- 56
2019-11-08 23:00:00 20.9 20 Norte 40 Norte 0 -- -- 57
2019-11-08 22:00:00 21.1 21 Norte 39 Norte 0 -- -- 58
2019-11-08 21:00:00 20.9 20 Norte 43 Norte 0 -- -- 67
2019-11-08 20:00:00 21.2 17 Norte 43 Nordeste 0 -- -- 63
2019-11-08 19:00:00 21.2 27 Nordeste 46 Norte 0 -- -- 62
2019-11-08 18:00:00 21.2 19 Norte 42 Nordeste 0 -- -- 59
2019-11-08 17:00:00 21.5 24 Norte 42 Norte 0 -- -- 63
2019-11-08 16:00:00 21.5 24 Norte 48 Nordeste 0 -- -- 61
2019-11-08 15:00:00 22.1 29 Nordeste 46 Nordeste 0 -- -- 64
2019-11-08 14:00:00 22 27 Nordeste 42 Nordeste 0 -- -- 71
2019-11-08 13:00:00 23.1 18 Norte 34 Norte 0 -- -- 66
2019-11-08 12:00:00 23.4 21 Nordeste 39 Nordeste 0 -- -- 67
2019-11-08 11:00:00 22.8 23 Nordeste 36 Nordeste 0 -- -- 69
2019-11-08 10:00:00 22.9 17 Nordeste 31 Nordeste 0 -- -- 67
2019-11-08 09:00:00 22.3 16 Nordeste 30 Norte 0 -- -- 68
2019-11-08 08:00:00 21.5 13 Norte 33 Nordeste 0 -- -- 72
2019-11-08 07:00:00 21.2 23 Nordeste 37 Nordeste 0 -- -- 71
2019-11-08 06:00:00 21.3 21 Norte 35 Norte 0 -- -- 71
2019-11-08 05:00:00 21.1 17 Norte 31 Norte 0 -- -- 70
2019-11-08 04:00:00 21 16 Norte 37 Norte 0 -- -- 69
2019-11-08 03:00:00 21.1 22 Norte 38 Nordeste 0 -- -- 70
2019-11-08 02:00:00 21.1 20 Norte 38 Norte 0.2 -- -- 70
2019-11-08 01:00:00 21.3 20 Norte 38 Norte 0 -- -- 70
2019-11-08 00:00:00 21.3 17 Norte 35 Norte 0 -- -- 73